createdAt,value
2022-09-01T00:13:06.748Z,52.55
2022-09-01T00:31:54.591Z,53.01
2022-09-01T01:00:42.074Z,53.91
2022-09-01T03:17:38.975Z,56.79
2022-09-01T03:51:19.713Z,57.32
2022-09-01T04:09:24.177Z,57.66
2022-09-01T04:14:37.486Z,57.67
2022-09-01T04:32:08.460Z,57.94
2022-09-01T04:37:09.271Z,57.95
2022-09-01T04:42:06.859Z,57.78
2022-09-01T04:47:03.244Z,57.96
2022-09-01T04:52:00.804Z,58.12
2022-09-01T05:47:00.005Z,58.77
2022-09-01T09:59:03.032Z,49.68
2022-09-01T10:20:07.562Z,48.35
2022-09-01T10:30:37.498Z,48.49
2022-09-01T10:41:30.615Z,47.86
2022-09-01T19:28:12.019Z,45.22
2022-09-01T19:33:11.829Z,45.21
2022-09-01T19:38:09.208Z,45.59
2022-09-01T19:43:06.961Z,45.78
2022-09-01T19:48:24.374Z,45.83
2022-09-01T19:53:27.156Z,46.09
2022-09-01T19:58:27.772Z,45.93
2022-09-01T20:03:26.240Z,46.33
2022-09-01T20:08:28.016Z,46.34
2022-09-01T20:13:33.755Z,46.72
2022-09-01T20:18:41.060Z,46.64
2022-09-01T20:23:54.332Z,46.66
2022-09-01T20:29:07.597Z,47.10
2022-09-01T20:34:29.153Z,47.02
2022-09-01T20:39:47.360Z,47.13
2022-09-01T20:44:49.311Z,47.45
2022-09-01T20:49:45.675Z,47.41
2022-09-01T20:54:45.040Z,47.37
2022-09-01T20:59:45.533Z,47.87
2022-09-01T21:05:01.727Z,47.74
2022-09-01T21:10:09.986Z,47.89
2022-09-01T21:15:27.653Z,48.38
2022-09-01T21:20:35.776Z,48.27
2022-09-01T21:25:32.075Z,48.29
2022-09-01T21:30:31.609Z,48.73
2022-09-01T21:35:28.439Z,48.76
2022-09-01T21:40:24.834Z,49.06
2022-09-01T21:45:23.359Z,49.13
2022-09-01T21:50:21.017Z,49.03
2022-09-01T21:55:22.509Z,49.44
2022-09-01T22:00:20.986Z,49.64
2022-09-01T22:05:17.319Z,49.64
2022-09-01T22:10:16.034Z,49.78
2022-09-01T22:15:13.081Z,49.92
2022-09-01T22:20:10.151Z,50.09
2022-09-01T22:25:07.408Z,50.13
2022-09-01T22:30:05.000Z,50.30
2022-09-01T22:35:02.004Z,50.10
2022-09-01T22:39:58.364Z,50.18
2022-09-01T22:44:54.751Z,50.55
2022-09-01T22:49:51.224Z,50.37
2022-09-01T22:54:47.525Z,50.57
2022-09-01T22:59:43.935Z,50.69
2022-09-01T23:04:42.286Z,50.60
2022-09-01T23:09:38.608Z,50.77
2022-09-01T23:14:35.088Z,50.86
2022-09-01T23:19:31.413Z,50.94
2022-09-01T23:24:27.740Z,51.26
2022-09-01T23:29:25.228Z,51.19
2022-09-01T23:34:21.606Z,51.27
2022-09-01T23:39:17.960Z,51.13
2022-09-01T23:44:14.364Z,51.47
2022-09-01T23:49:11.085Z,51.48
2022-09-01T23:54:07.496Z,51.28
2022-09-01T23:59:03.870Z,51.46
